KABR/ABR METAR and TAF weather

Enter ICAO airport designator
Station Type Date Time Source
KABR METAR 2018/04/21 20:53 UTC NOAA

KABR 212053Z AUTO 18017KT 10SM SCT070 16/01 A3029 RMK AO2 SLP262 T01560006 58012


Station Type Date Time Source
KABR Decoded METAR 2018/04/21 20:53 UTC NOAA

ABERDEEN REGIONAL AIRPORT, SD, United States (KABR) 45-27N 098-25W 400M
Apr 21, 2018 - 04:53 PM EDT / 2018.04.21 2053 UTC
Wind: from the S (180 degrees) at 20 MPH (17 KT):0
Visibility: 10 mile(s):0
Sky conditions: partly cloudy
Temperature: 60.1 F (15.6 C)
Dew Point: 33.1 F (0.6 C)
Relative Humidity: 36%
Pressure (altimeter): 30.29 in. Hg (1025 hPa)
Pressure tendency: 0.04 inches (1.2 hPa) lower than three hours ago
ob: KABR 212053Z AUTO 18017KT 10SM SCT070 16/01 A3029 RMK AO2 SLP262 T01560006 58012
cycle: 21

Station Type Date Time Source
KABR TAF 2018/04/21 18:22 UTC NOAA

TAF KABR 211720Z 2118/2218 18009KT P6SM SCT080 BKN150
FM220400 16007KT P6SM FEW200


Example: see airport list